Accueil
METAR-TAF:

METAR-TAF

Aéroports :

Wainwright, Alaska, États-Unis

latitude: 64-50N, longitude: 147-37W, altitude: 137 m

Observation

Le bulletin a été fait il y a 49 minutes, à 20:58 UTC
Vent calme
Température -29°C
Humidité 75%
Pression 1021 hPa
Visibilité: 16.1 km
Quelques nuages à une hauteur de 300 ft

METAR: PAFB 282058Z 00000KT 10SM FEW003 M29/M32 A3016 RMK AO2A SLP237 PWR PLNT PLUME FEW003 T12941325 51018

Heure: 12:47 (21:47 UTC)

Prévision

Le bulletin a été fait il y a 5 heures et 47 minutes, à 16:00 UTC
Prévision valable du 28 à 16 UTC au 29 à 22 UTC
Vent 2 kt de direction variable
Visibilité 10 km ou plus
Ciel clair

TAF: PAFB 281600Z 2816/2922 VRB02KT 9999 SKC QNH2996INS TXM19/2901Z TNM37/2817Z

Observations et prévisions météorologiques de plus de 4000 aéroports (messages METAR et TAF).

Les stations disponibles sont représentées par des disques jaunes et rouges sur la carte.

Passer la souris dessus pour voir le nom de la station.

Cliquer dessus pour voir les observations et prévisions météorologiques.

Pour changer de carte: cliquez sur les boutons verts avec une croix noire pour zoomer, sur le bouton vert avec un tiret pour effectuer un zoom arrière, ou sur les flèches vertes pour les cartes adjacentes.


METAR-TAF: